sensor_id;sensor_type;location;lat;lon;timestamp;P1;durP1;ratioP1;P2;durP2;ratioP2
17648;SDS011;8943;51.110;-4.158;2023-12-20T00:01:52;13.37;;;2.30;;
17648;SDS011;8943;51.110;-4.158;2023-12-20T00:04:26;11.67;;;2.37;;
17648;SDS011;8943;51.110;-4.158;2023-12-20T00:07:00;11.33;;;2.03;;
17648;SDS011;8943;51.110;-4.158;2023-12-20T00:09:36;8.40;;;1.67;;
17648;SDS011;8943;51.110;-4.158;2023-12-20T00:12:05;10.70;;;2.70;;
17648;SDS011;8943;51.110;-4.158;2023-12-20T00:14:34;7.67;;;1.67;;
17648;SDS011;8943;51.110;-4.158;2023-12-20T00:17:04;12.03;;;2.70;;
17648;SDS011;8943;51.110;-4.158;2023-12-20T00:20:39;13.47;;;2.63;;
17648;SDS011;8943;51.110;-4.158;2023-12-20T00:23:12;15.47;;;3.00;;
17648;SDS011;8943;51.110;-4.158;2023-12-20T00:25:41;9.17;;;2.63;;
17648;SDS011;8943;51.110;-4.158;2023-12-20T00:28:10;10.77;;;2.30;;
17648;SDS011;8943;51.110;-4.158;2023-12-20T00:30:38;15.70;;;2.67;;
17648;SDS011;8943;51.110;-4.158;2023-12-20T00:33:06;13.90;;;3.47;;
17648;SDS011;8943;51.110;-4.158;2023-12-20T00:35:35;13.13;;;2.50;;
17648;SDS011;8943;51.110;-4.158;2023-12-20T00:38:03;15.33;;;2.53;;
17648;SDS011;8943;51.110;-4.158;2023-12-20T00:40:34;13.07;;;2.67;;
17648;SDS011;8943;51.110;-4.158;2023-12-20T00:43:14;13.33;;;2.07;;
17648;SDS011;8943;51.110;-4.158;2023-12-20T00:45:45;11.43;;;3.07;;
17648;SDS011;8943;51.110;-4.158;2023-12-20T00:48:16;11.63;;;2.63;;
17648;SDS011;8943;51.110;-4.158;2023-12-20T00:50:49;15.07;;;3.10;;
17648;SDS011;8943;51.110;-4.158;2023-12-20T00:53:17;16.10;;;2.77;;
17648;SDS011;8943;51.110;-4.158;2023-12-20T00:55:48;14.40;;;2.53;;
17648;SDS011;8943;51.110;-4.158;2023-12-20T00:58:31;12.50;;;2.73;;
17648;SDS011;8943;51.110;-4.158;2023-12-20T01:01:03;12.13;;;2.63;;
17648;SDS011;8943;51.110;-4.158;2023-12-20T01:03:35;10.90;;;2.57;;
17648;SDS011;8943;51.110;-4.158;2023-12-20T01:06:03;7.30;;;1.93;;
17648;SDS011;8943;51.110;-4.158;2023-12-20T01:08:32;14.80;;;2.87;;
17648;SDS011;8943;51.110;-4.158;2023-12-20T01:17:34;8.47;;;1.97;;
17648;SDS011;8943;51.110;-4.158;2023-12-20T01:20:09;10.47;;;2.00;;
17648;SDS011;8943;51.110;-4.158;2023-12-20T01:23:01;14.50;;;3.07;;
17648;SDS011;8943;51.110;-4.158;2023-12-20T01:25:31;15.27;;;3.27;;
17648;SDS011;8943;51.110;-4.158;2023-12-20T01:28:43;11.80;;;2.27;;
17648;SDS011;8943;51.110;-4.158;2023-12-20T01:31:22;15.33;;;1.90;;
17648;SDS011;8943;51.110;-4.158;2023-12-20T01:33:55;9.57;;;1.77;;
17648;SDS011;8943;51.110;-4.158;2023-12-20T01:37:11;8.33;;;2.10;;
17648;SDS011;8943;51.110;-4.158;2023-12-20T01:39:43;12.77;;;2.40;;
17648;SDS011;8943;51.110;-4.158;2023-12-20T01:51:50;10.90;;;2.50;;
17648;SDS011;8943;51.110;-4.158;2023-12-20T01:54:44;9.90;;;2.37;;
17648;SDS011;8943;51.110;-4.158;2023-12-20T01:57:58;8.53;;;2.23;;
17648;SDS011;8943;51.110;-4.158;2023-12-20T02:00:29;13.97;;;3.00;;
17648;SDS011;8943;51.110;-4.158;2023-12-20T02:03:07;8.07;;;2.77;;
17648;SDS011;8943;51.110;-4.158;2023-12-20T02:05:58;13.47;;;2.70;;
17648;SDS011;8943;51.110;-4.158;2023-12-20T02:18:43;11.73;;;2.60;;
17648;SDS011;8943;51.110;-4.158;2023-12-20T02:21:13;14.50;;;2.43;;
17648;SDS011;8943;51.110;-4.158;2023-12-20T02:23:44;16.93;;;3.27;;
17648;SDS011;8943;51.110;-4.158;2023-12-20T02:26:13;15.13;;;2.87;;
17648;SDS011;8943;51.110;-4.158;2023-12-20T02:28:42;14.10;;;3.20;;
17648;SDS011;8943;51.110;-4.158;2023-12-20T02:31:12;12.20;;;2.70;;
17648;SDS011;8943;51.110;-4.158;2023-12-20T02:33:40;17.10;;;2.80;;
17648;SDS011;8943;51.110;-4.158;2023-12-20T02:36:24;16.37;;;3.67;;
17648;SDS011;8943;51.110;-4.158;2023-12-20T02:38:59;10.50;;;2.57;;
17648;SDS011;8943;51.110;-4.158;2023-12-20T02:41:49;9.67;;;2.37;;
17648;SDS011;8943;51.110;-4.158;2023-12-20T02:44:21;14.90;;;3.23;;
17648;SDS011;8943;51.110;-4.158;2023-12-20T02:46:49;8.33;;;2.33;;
17648;SDS011;8943;51.110;-4.158;2023-12-20T02:49:18;12.97;;;3.30;;
17648;SDS011;8943;51.110;-4.158;2023-12-20T02:51:46;17.10;;;3.60;;
17648;SDS011;8943;51.110;-4.158;2023-12-20T02:54:27;21.50;;;4.07;;
17648;SDS011;8943;51.110;-4.158;2023-12-20T02:56:56;21.83;;;3.63;;
17648;SDS011;8943;51.110;-4.158;2023-12-20T02:59:24;18.30;;;3.23;;
17648;SDS011;8943;51.110;-4.158;2023-12-20T03:01:55;5.03;;;1.77;;
17648;SDS011;8943;51.110;-4.158;2023-12-20T03:04:26;13.40;;;2.77;;
17648;SDS011;8943;51.110;-4.158;2023-12-20T03:07:00;17.87;;;3.23;;
17648;SDS011;8943;51.110;-4.158;2023-12-20T03:12:41;14.63;;;2.97;;
17648;SDS011;8943;51.110;-4.158;2023-12-20T03:15:09;14.40;;;3.30;;
17648;SDS011;8943;51.110;-4.158;2023-12-20T03:17:38;11.33;;;1.80;;
17648;SDS011;8943;51.110;-4.158;2023-12-20T03:20:08;12.53;;;2.53;;
17648;SDS011;8943;51.110;-4.158;2023-12-20T03:22:38;12.87;;;2.77;;
17648;SDS011;8943;51.110;-4.158;2023-12-20T03:25:15;11.20;;;2.47;;
17648;SDS011;8943;51.110;-4.158;2023-12-20T03:27:48;18.47;;;2.53;;
17648;SDS011;8943;51.110;-4.158;2023-12-20T03:30:33;16.87;;;3.30;;
17648;SDS011;8943;51.110;-4.158;2023-12-20T03:33:01;19.67;;;3.47;;
17648;SDS011;8943;51.110;-4.158;2023-12-20T03:35:29;13.77;;;2.80;;
17648;SDS011;8943;51.110;-4.158;2023-12-20T03:37:58;10.00;;;2.77;;
17648;SDS011;8943;51.110;-4.158;2023-12-20T03:41:00;12.87;;;2.83;;
17648;SDS011;8943;51.110;-4.158;2023-12-20T03:43:29;13.53;;;2.67;;
17648;SDS011;8943;51.110;-4.158;2023-12-20T03:45:58;18.00;;;3.20;;
17648;SDS011;8943;51.110;-4.158;2023-12-20T03:48:26;18.40;;;4.23;;
17648;SDS011;8943;51.110;-4.158;2023-12-20T03:50:57;16.03;;;2.53;;
17648;SDS011;8943;51.110;-4.158;2023-12-20T03:53:50;11.57;;;2.50;;
17648;SDS011;8943;51.110;-4.158;2023-12-20T03:56:35;12.63;;;2.80;;
17648;SDS011;8943;51.110;-4.158;2023-12-20T03:59:05;16.80;;;3.07;;
17648;SDS011;8943;51.110;-4.158;2023-12-20T04:01:42;12.93;;;3.07;;
17648;SDS011;8943;51.110;-4.158;2023-12-20T04:04:13;12.43;;;2.40;;
17648;SDS011;8943;51.110;-4.158;2023-12-20T04:06:43;18.27;;;2.80;;
17648;SDS011;8943;51.110;-4.158;2023-12-20T04:09:15;14.70;;;2.33;;
17648;SDS011;8943;51.110;-4.158;2023-12-20T04:11:45;11.10;;;2.93;;
17648;SDS011;8943;51.110;-4.158;2023-12-20T04:14:16;14.33;;;3.27;;
17648;SDS011;8943;51.110;-4.158;2023-12-20T04:16:45;12.90;;;2.63;;
17648;SDS011;8943;51.110;-4.158;2023-12-20T04:19:25;18.60;;;2.20;;
17648;SDS011;8943;51.110;-4.158;2023-12-20T04:21:54;17.37;;;2.53;;
17648;SDS011;8943;51.110;-4.158;2023-12-20T04:24:22;14.33;;;2.63;;
17648;SDS011;8943;51.110;-4.158;2023-12-20T04:26:53;10.43;;;1.90;;
17648;SDS011;8943;51.110;-4.158;2023-12-20T04:29:21;16.00;;;2.87;;
17648;SDS011;8943;51.110;-4.158;2023-12-20T04:31:50;12.53;;;2.70;;
17648;SDS011;8943;51.110;-4.158;2023-12-20T04:34:19;12.50;;;3.20;;
17648;SDS011;8943;51.110;-4.158;2023-12-20T04:45:04;15.77;;;2.90;;
17648;SDS011;8943;51.110;-4.158;2023-12-20T04:47:33;16.83;;;3.17;;
17648;SDS011;8943;51.110;-4.158;2023-12-20T04:50:02;10.43;;;2.63;;
17648;SDS011;8943;51.110;-4.158;2023-12-20T04:52:38;12.90;;;2.53;;
17648;SDS011;8943;51.110;-4.158;2023-12-20T04:55:09;14.20;;;2.47;;
17648;SDS011;8943;51.110;-4.158;2023-12-20T04:57:41;11.87;;;2.50;;
17648;SDS011;8943;51.110;-4.158;2023-12-20T05:00:13;12.57;;;2.30;;
17648;SDS011;8943;51.110;-4.158;2023-12-20T05:02:42;9.10;;;2.83;;
17648;SDS011;8943;51.110;-4.158;2023-12-20T05:05:11;10.07;;;2.20;;
17648;SDS011;8943;51.110;-4.158;2023-12-20T05:07:41;11.80;;;2.47;;
17648;SDS011;8943;51.110;-4.158;2023-12-20T05:10:17;6.83;;;2.13;;
17648;SDS011;8943;51.110;-4.158;2023-12-20T05:12:45;14.10;;;2.40;;
17648;SDS011;8943;51.110;-4.158;2023-12-20T05:15:20;15.17;;;2.03;;
17648;SDS011;8943;51.110;-4.158;2023-12-20T05:17:50;19.27;;;3.40;;
17648;SDS011;8943;51.110;-4.158;2023-12-20T05:20:21;15.87;;;2.60;;
17648;SDS011;8943;51.110;-4.158;2023-12-20T05:22:51;13.37;;;3.00;;
17648;SDS011;8943;51.110;-4.158;2023-12-20T05:25:23;11.83;;;2.47;;
17648;SDS011;8943;51.110;-4.158;2023-12-20T05:27:52;13.57;;;2.97;;
17648;SDS011;8943;51.110;-4.158;2023-12-20T05:30:24;12.20;;;2.50;;
17648;SDS011;8943;51.110;-4.158;2023-12-20T05:32:53;10.23;;;1.67;;
17648;SDS011;8943;51.110;-4.158;2023-12-20T05:35:23;11.83;;;2.70;;
17648;SDS011;8943;51.110;-4.158;2023-12-20T05:37:56;15.50;;;2.33;;
17648;SDS011;8943;51.110;-4.158;2023-12-20T05:40:31;14.80;;;2.20;;
17648;SDS011;8943;51.110;-4.158;2023-12-20T05:43:02;11.40;;;2.33;;
17648;SDS011;8943;51.110;-4.158;2023-12-20T05:45:48;11.37;;;2.37;;
17648;SDS011;8943;51.110;-4.158;2023-12-20T05:48:22;12.13;;;2.20;;
17648;SDS011;8943;51.110;-4.158;2023-12-20T05:50:54;17.63;;;2.90;;
17648;SDS011;8943;51.110;-4.158;2023-12-20T05:53:39;14.73;;;2.07;;
17648;SDS011;8943;51.110;-4.158;2023-12-20T05:56:07;11.33;;;2.03;;
17648;SDS011;8943;51.110;-4.158;2023-12-20T05:58:36;17.77;;;2.27;;
17648;SDS011;8943;51.110;-4.158;2023-12-20T06:01:15;17.30;;;3.13;;
17648;SDS011;8943;51.110;-4.158;2023-12-20T06:03:44;9.30;;;2.70;;
17648;SDS011;8943;51.110;-4.158;2023-12-20T06:06:23;12.13;;;2.53;;
17648;SDS011;8943;51.110;-4.158;2023-12-20T06:08:51;12.07;;;2.83;;
17648;SDS011;8943;51.110;-4.158;2023-12-20T06:11:30;12.33;;;2.63;;
17648;SDS011;8943;51.110;-4.158;2023-12-20T06:13:59;11.90;;;2.43;;
17648;SDS011;8943;51.110;-4.158;2023-12-20T06:16:39;11.63;;;2.70;;
17648;SDS011;8943;51.110;-4.158;2023-12-20T06:19:08;10.70;;;2.20;;
17648;SDS011;8943;51.110;-4.158;2023-12-20T06:21:41;8.07;;;1.67;;
17648;SDS011;8943;51.110;-4.158;2023-12-20T06:25:20;11.30;;;2.60;;
17648;SDS011;8943;51.110;-4.158;2023-12-20T06:27:55;11.37;;;2.33;;
17648;SDS011;8943;51.110;-4.158;2023-12-20T06:30:26;11.30;;;2.50;;
17648;SDS011;8943;51.110;-4.158;2023-12-20T06:32:59;11.80;;;2.20;;
17648;SDS011;8943;51.110;-4.158;2023-12-20T06:35:30;12.90;;;1.70;;
17648;SDS011;8943;51.110;-4.158;2023-12-20T06:38:03;13.70;;;2.70;;
17648;SDS011;8943;51.110;-4.158;2023-12-20T06:40:31;12.47;;;2.17;;
17648;SDS011;8943;51.110;-4.158;2023-12-20T06:43:03;7.50;;;1.87;;
17648;SDS011;8943;51.110;-4.158;2023-12-20T06:45:57;12.57;;;2.03;;
17648;SDS011;8943;51.110;-4.158;2023-12-20T06:48:27;8.10;;;1.47;;
17648;SDS011;8943;51.110;-4.158;2023-12-20T06:50:59;11.30;;;2.20;;
17648;SDS011;8943;51.110;-4.158;2023-12-20T06:53:43;8.00;;;1.83;;
17648;SDS011;8943;51.110;-4.158;2023-12-20T06:56:17;5.70;;;1.70;;
17648;SDS011;8943;51.110;-4.158;2023-12-20T06:59:03;11.27;;;1.90;;
17648;SDS011;8943;51.110;-4.158;2023-12-20T07:01:31;8.30;;;1.63;;
17648;SDS011;8943;51.110;-4.158;2023-12-20T07:04:03;7.33;;;1.60;;
17648;SDS011;8943;51.110;-4.158;2023-12-20T07:06:31;10.07;;;2.30;;
17648;SDS011;8943;51.110;-4.158;2023-12-20T07:09:00;8.87;;;2.03;;
17648;SDS011;8943;51.110;-4.158;2023-12-20T07:11:28;10.97;;;2.40;;
17648;SDS011;8943;51.110;-4.158;2023-12-20T07:13:57;13.50;;;2.60;;
17648;SDS011;8943;51.110;-4.158;2023-12-20T07:16:29;12.93;;;2.17;;
17648;SDS011;8943;51.110;-4.158;2023-12-20T07:18:59;16.60;;;2.63;;
17648;SDS011;8943;51.110;-4.158;2023-12-20T07:21:29;14.10;;;2.30;;
17648;SDS011;8943;51.110;-4.158;2023-12-20T07:23:57;13.17;;;2.13;;
17648;SDS011;8943;51.110;-4.158;2023-12-20T07:26:26;16.20;;;2.73;;
17648;SDS011;8943;51.110;-4.158;2023-12-20T07:28:55;13.37;;;2.57;;
17648;SDS011;8943;51.110;-4.158;2023-12-20T07:31:28;10.80;;;2.53;;
17648;SDS011;8943;51.110;-4.158;2023-12-20T07:33:57;15.43;;;2.47;;
17648;SDS011;8943;51.110;-4.158;2023-12-20T07:36:25;14.70;;;2.33;;
17648;SDS011;8943;51.110;-4.158;2023-12-20T07:38:55;22.40;;;2.57;;
17648;SDS011;8943;51.110;-4.158;2023-12-20T07:41:23;57.77;;;4.73;;
17648;SDS011;8943;51.110;-4.158;2023-12-20T07:43:59;20.03;;;3.37;;
17648;SDS011;8943;51.110;-4.158;2023-12-20T07:46:28;10.53;;;2.23;;
17648;SDS011;8943;51.110;-4.158;2023-12-20T07:48:56;10.53;;;2.00;;
17648;SDS011;8943;51.110;-4.158;2023-12-20T07:51:41;10.07;;;1.77;;
17648;SDS011;8943;51.110;-4.158;2023-12-20T07:54:14;16.37;;;2.50;;
17648;SDS011;8943;51.110;-4.158;2023-12-20T07:56:42;17.57;;;2.07;;
17648;SDS011;8943;51.110;-4.158;2023-12-20T07:59:11;11.10;;;2.53;;
17648;SDS011;8943;51.110;-4.158;2023-12-20T08:01:55;14.03;;;2.27;;
17648;SDS011;8943;51.110;-4.158;2023-12-20T08:04:24;10.47;;;2.00;;
17648;SDS011;8943;51.110;-4.158;2023-12-20T08:06:55;10.07;;;2.13;;
17648;SDS011;8943;51.110;-4.158;2023-12-20T08:09:26;8.70;;;2.10;;
17648;SDS011;8943;51.110;-4.158;2023-12-20T08:11:54;8.57;;;2.10;;
17648;SDS011;8943;51.110;-4.158;2023-12-20T08:14:23;9.03;;;1.97;;
17648;SDS011;8943;51.110;-4.158;2023-12-20T08:16:51;16.00;;;2.73;;
17648;SDS011;8943;51.110;-4.158;2023-12-20T08:19:19;17.60;;;3.10;;
17648;SDS011;8943;51.110;-4.158;2023-12-20T08:21:48;11.03;;;2.43;;
17648;SDS011;8943;51.110;-4.158;2023-12-20T08:24:17;14.97;;;2.80;;
17648;SDS011;8943;51.110;-4.158;2023-12-20T08:26:47;16.50;;;2.60;;
17648;SDS011;8943;51.110;-4.158;2023-12-20T08:29:15;10.63;;;2.40;;
17648;SDS011;8943;51.110;-4.158;2023-12-20T08:31:43;6.17;;;1.50;;
17648;SDS011;8943;51.110;-4.158;2023-12-20T08:34:13;6.03;;;1.43;;
17648;SDS011;8943;51.110;-4.158;2023-12-20T08:36:42;7.80;;;1.60;;
17648;SDS011;8943;51.110;-4.158;2023-12-20T08:39:10;14.07;;;2.57;;
17648;SDS011;8943;51.110;-4.158;2023-12-20T08:41:45;8.90;;;1.63;;
17648;SDS011;8943;51.110;-4.158;2023-12-20T08:44:19;7.90;;;1.63;;
17648;SDS011;8943;51.110;-4.158;2023-12-20T08:46:48;11.17;;;1.60;;
17648;SDS011;8943;51.110;-4.158;2023-12-20T08:49:17;8.27;;;1.90;;
17648;SDS011;8943;51.110;-4.158;2023-12-20T08:51:45;9.43;;;1.63;;
17648;SDS011;8943;51.110;-4.158;2023-12-20T08:54:13;7.30;;;1.53;;
17648;SDS011;8943;51.110;-4.158;2023-12-20T08:56:43;14.10;;;2.43;;
17648;SDS011;8943;51.110;-4.158;2023-12-20T08:59:13;8.77;;;2.47;;
17648;SDS011;8943;51.110;-4.158;2023-12-20T09:01:41;12.93;;;1.80;;
17648;SDS011;8943;51.110;-4.158;2023-12-20T09:04:10;7.17;;;1.63;;
17648;SDS011;8943;51.110;-4.158;2023-12-20T09:07:21;12.10;;;1.77;;
17648;SDS011;8943;51.110;-4.158;2023-12-20T09:09:49;15.47;;;2.47;;
17648;SDS011;8943;51.110;-4.158;2023-12-20T09:14:59;5.60;;;1.60;;
17648;SDS011;8943;51.110;-4.158;2023-12-20T09:17:29;17.23;;;2.50;;
17648;SDS011;8943;51.110;-4.158;2023-12-20T09:20:07;3.67;;;0.77;;
17648;SDS011;8943;51.110;-4.158;2023-12-20T09:22:37;10.17;;;1.93;;
17648;SDS011;8943;51.110;-4.158;2023-12-20T09:25:06;14.97;;;2.17;;
17648;SDS011;8943;51.110;-4.158;2023-12-20T09:27:35;5.27;;;1.60;;
17648;SDS011;8943;51.110;-4.158;2023-12-20T09:30:06;16.43;;;2.60;;
17648;SDS011;8943;51.110;-4.158;2023-12-20T09:32:36;9.37;;;1.80;;
17648;SDS011;8943;51.110;-4.158;2023-12-20T09:35:11;9.80;;;1.20;;
17648;SDS011;8943;51.110;-4.158;2023-12-20T09:37:42;10.93;;;1.73;;
17648;SDS011;8943;51.110;-4.158;2023-12-20T09:40:12;8.50;;;2.03;;
17648;SDS011;8943;51.110;-4.158;2023-12-20T09:42:43;11.93;;;2.63;;
17648;SDS011;8943;51.110;-4.158;2023-12-20T09:45:19;14.47;;;2.30;;
17648;SDS011;8943;51.110;-4.158;2023-12-20T09:47:49;12.70;;;2.87;;
17648;SDS011;8943;51.110;-4.158;2023-12-20T09:50:21;10.43;;;2.17;;
17648;SDS011;8943;51.110;-4.158;2023-12-20T09:52:51;9.67;;;1.73;;
17648;SDS011;8943;51.110;-4.158;2023-12-20T09:55:20;3.10;;;0.97;;
17648;SDS011;8943;51.110;-4.158;2023-12-20T09:57:50;9.47;;;1.50;;
17648;SDS011;8943;51.110;-4.158;2023-12-20T10:00:20;14.07;;;2.20;;
17648;SDS011;8943;51.110;-4.158;2023-12-20T10:02:54;3.27;;;1.20;;
17648;SDS011;8943;51.110;-4.158;2023-12-20T10:05:26;11.43;;;2.27;;
17648;SDS011;8943;51.110;-4.158;2023-12-20T10:07:55;3.93;;;1.07;;
17648;SDS011;8943;51.110;-4.158;2023-12-20T10:10:24;6.17;;;1.47;;
17648;SDS011;8943;51.110;-4.158;2023-12-20T10:13:08;9.70;;;1.73;;
17648;SDS011;8943;51.110;-4.158;2023-12-20T10:15:40;5.63;;;1.73;;
17648;SDS011;8943;51.110;-4.158;2023-12-20T10:18:09;8.87;;;2.03;;
17648;SDS011;8943;51.110;-4.158;2023-12-20T10:20:38;4.20;;;1.17;;
17648;SDS011;8943;51.110;-4.158;2023-12-20T10:23:08;10.37;;;1.43;;
17648;SDS011;8943;51.110;-4.158;2023-12-20T10:25:37;9.13;;;1.53;;
17648;SDS011;8943;51.110;-4.158;2023-12-20T10:28:09;4.60;;;1.23;;
17648;SDS011;8943;51.110;-4.158;2023-12-20T10:30:43;9.17;;;1.80;;
17648;SDS011;8943;51.110;-4.158;2023-12-20T10:33:11;8.47;;;2.07;;
17648;SDS011;8943;51.110;-4.158;2023-12-20T10:35:40;6.43;;;2.00;;
17648;SDS011;8943;51.110;-4.158;2023-12-20T10:38:12;3.43;;;0.80;;
17648;SDS011;8943;51.110;-4.158;2023-12-20T10:40:45;11.43;;;2.10;;
17648;SDS011;8943;51.110;-4.158;2023-12-20T10:43:14;8.57;;;1.87;;
17648;SDS011;8943;51.110;-4.158;2023-12-20T10:45:47;17.87;;;2.37;;
17648;SDS011;8943;51.110;-4.158;2023-12-20T10:48:15;10.10;;;2.17;;
17648;SDS011;8943;51.110;-4.158;2023-12-20T10:50:48;13.27;;;1.43;;
17648;SDS011;8943;51.110;-4.158;2023-12-20T10:53:17;11.13;;;2.73;;
17648;SDS011;8943;51.110;-4.158;2023-12-20T10:55:46;9.10;;;1.90;;
17648;SDS011;8943;51.110;-4.158;2023-12-20T10:58:20;8.70;;;2.07;;
17648;SDS011;8943;51.110;-4.158;2023-12-20T11:00:51;17.73;;;2.40;;
17648;SDS011;8943;51.110;-4.158;2023-12-20T11:03:34;12.07;;;2.40;;
17648;SDS011;8943;51.110;-4.158;2023-12-20T11:06:07;15.17;;;2.50;;
17648;SDS011;8943;51.110;-4.158;2023-12-20T11:08:44;5.83;;;1.33;;
17648;SDS011;8943;51.110;-4.158;2023-12-20T11:11:20;12.67;;;2.87;;
17648;SDS011;8943;51.110;-4.158;2023-12-20T11:13:55;9.60;;;1.77;;
17648;SDS011;8943;51.110;-4.158;2023-12-20T11:16:29;6.97;;;1.60;;
17648;SDS011;8943;51.110;-4.158;2023-12-20T11:19:13;8.63;;;1.40;;
17648;SDS011;8943;51.110;-4.158;2023-12-20T11:21:43;9.03;;;2.27;;
17648;SDS011;8943;51.110;-4.158;2023-12-20T11:24:15;8.93;;;2.13;;
17648;SDS011;8943;51.110;-4.158;2023-12-20T11:26:46;11.30;;;2.40;;
17648;SDS011;8943;51.110;-4.158;2023-12-20T11:29:31;8.93;;;2.20;;
17648;SDS011;8943;51.110;-4.158;2023-12-20T11:32:27;11.00;;;2.03;;
17648;SDS011;8943;51.110;-4.158;2023-12-20T11:35:16;10.07;;;2.43;;
17648;SDS011;8943;51.110;-4.158;2023-12-20T11:37:48;13.53;;;2.73;;
17648;SDS011;8943;51.110;-4.158;2023-12-20T11:40:18;6.10;;;1.07;;
17648;SDS011;8943;51.110;-4.158;2023-12-20T11:42:53;10.37;;;2.13;;
17648;SDS011;8943;51.110;-4.158;2023-12-20T11:45:23;7.77;;;2.30;;
17648;SDS011;8943;51.110;-4.158;2023-12-20T11:47:58;6.00;;;1.90;;
17648;SDS011;8943;51.110;-4.158;2023-12-20T11:50:26;11.57;;;2.30;;
17648;SDS011;8943;51.110;-4.158;2023-12-20T11:52:56;14.00;;;2.33;;
17648;SDS011;8943;51.110;-4.158;2023-12-20T11:55:24;13.80;;;2.50;;
17648;SDS011;8943;51.110;-4.158;2023-12-20T11:57:57;7.37;;;1.80;;
17648;SDS011;8943;51.110;-4.158;2023-12-20T12:00:26;7.53;;;1.97;;
17648;SDS011;8943;51.110;-4.158;2023-12-20T12:02:58;22.50;;;2.90;;
17648;SDS011;8943;51.110;-4.158;2023-12-20T12:05:28;16.40;;;2.27;;
17648;SDS011;8943;51.110;-4.158;2023-12-20T12:07:58;12.97;;;3.00;;
17648;SDS011;8943;51.110;-4.158;2023-12-20T12:10:26;13.87;;;2.60;;
17648;SDS011;8943;51.110;-4.158;2023-12-20T12:12:55;10.07;;;1.80;;
17648;SDS011;8943;51.110;-4.158;2023-12-20T12:15:27;3.87;;;1.70;;
17648;SDS011;8943;51.110;-4.158;2023-12-20T12:18:00;13.47;;;1.73;;
17648;SDS011;8943;51.110;-4.158;2023-12-20T12:20:29;12.60;;;3.13;;
17648;SDS011;8943;51.110;-4.158;2023-12-20T12:23:27;12.63;;;2.13;;
17648;SDS011;8943;51.110;-4.158;2023-12-20T12:25:57;16.87;;;2.13;;
17648;SDS011;8943;51.110;-4.158;2023-12-20T12:28:46;6.67;;;1.83;;
17648;SDS011;8943;51.110;-4.158;2023-12-20T12:31:18;9.77;;;2.20;;
17648;SDS011;8943;51.110;-4.158;2023-12-20T12:33:48;15.10;;;2.47;;
17648;SDS011;8943;51.110;-4.158;2023-12-20T12:36:16;10.20;;;2.23;;
17648;SDS011;8943;51.110;-4.158;2023-12-20T12:38:45;9.67;;;2.33;;
17648;SDS011;8943;51.110;-4.158;2023-12-20T12:41:14;6.67;;;1.63;;
17648;SDS011;8943;51.110;-4.158;2023-12-20T12:43:54;20.70;;;2.20;;
17648;SDS011;8943;51.110;-4.158;2023-12-20T12:46:28;16.53;;;3.10;;
17648;SDS011;8943;51.110;-4.158;2023-12-20T12:49:03;20.13;;;2.40;;
17648;SDS011;8943;51.110;-4.158;2023-12-20T12:51:33;9.17;;;2.23;;
17648;SDS011;8943;51.110;-4.158;2023-12-20T12:54:09;11.93;;;2.07;;
17648;SDS011;8943;51.110;-4.158;2023-12-20T12:57:27;4.40;;;1.47;;
17648;SDS011;8943;51.110;-4.158;2023-12-20T13:03:01;8.90;;;2.33;;
17648;SDS011;8943;51.110;-4.158;2023-12-20T13:05:56;13.77;;;2.70;;
17648;SDS011;8943;51.110;-4.158;2023-12-20T13:08:28;15.77;;;2.50;;
17648;SDS011;8943;51.110;-4.158;2023-12-20T13:10:58;20.30;;;3.83;;
17648;SDS011;8943;51.110;-4.158;2023-12-20T13:13:47;15.03;;;2.90;;
17648;SDS011;8943;51.110;-4.158;2023-12-20T13:26:26;13.83;;;2.77;;
17648;SDS011;8943;51.110;-4.158;2023-12-20T13:28:54;16.50;;;2.57;;
17648;SDS011;8943;51.110;-4.158;2023-12-20T13:31:28;15.23;;;3.10;;
17648;SDS011;8943;51.110;-4.158;2023-12-20T13:33:57;18.33;;;3.63;;
17648;SDS011;8943;51.110;-4.158;2023-12-20T13:36:25;20.30;;;3.17;;
17648;SDS011;8943;51.110;-4.158;2023-12-20T13:38:54;8.90;;;2.03;;
17648;SDS011;8943;51.110;-4.158;2023-12-20T13:41:26;16.73;;;3.77;;
17648;SDS011;8943;51.110;-4.158;2023-12-20T13:43:54;11.67;;;2.77;;
17648;SDS011;8943;51.110;-4.158;2023-12-20T13:46:23;5.97;;;1.70;;
17648;SDS011;8943;51.110;-4.158;2023-12-20T13:48:55;11.97;;;3.10;;
17648;SDS011;8943;51.110;-4.158;2023-12-20T13:51:27;23.13;;;5.10;;
17648;SDS011;8943;51.110;-4.158;2023-12-20T13:53:56;19.20;;;3.17;;
17648;SDS011;8943;51.110;-4.158;2023-12-20T13:56:25;18.37;;;4.07;;
17648;SDS011;8943;51.110;-4.158;2023-12-20T13:58:53;19.23;;;3.90;;
17648;SDS011;8943;51.110;-4.158;2023-12-20T14:01:22;16.37;;;3.60;;
17648;SDS011;8943;51.110;-4.158;2023-12-20T14:03:51;19.93;;;3.67;;
17648;SDS011;8943;51.110;-4.158;2023-12-20T14:06:19;23.23;;;4.53;;
17648;SDS011;8943;51.110;-4.158;2023-12-20T14:08:49;19.73;;;4.23;;
17648;SDS011;8943;51.110;-4.158;2023-12-20T14:11:17;13.53;;;3.23;;
17648;SDS011;8943;51.110;-4.158;2023-12-20T14:13:49;22.27;;;4.37;;
17648;SDS011;8943;51.110;-4.158;2023-12-20T14:16:17;17.17;;;4.20;;
17648;SDS011;8943;51.110;-4.158;2023-12-20T14:18:45;20.77;;;4.30;;
17648;SDS011;8943;51.110;-4.158;2023-12-20T14:21:13;10.90;;;2.97;;
17648;SDS011;8943;51.110;-4.158;2023-12-20T14:23:42;18.53;;;4.10;;
17648;SDS011;8943;51.110;-4.158;2023-12-20T14:26:12;21.40;;;4.97;;
17648;SDS011;8943;51.110;-4.158;2023-12-20T14:28:41;27.03;;;5.40;;
17648;SDS011;8943;51.110;-4.158;2023-12-20T14:31:14;20.07;;;4.07;;
17648;SDS011;8943;51.110;-4.158;2023-12-20T14:33:42;23.23;;;4.47;;
17648;SDS011;8943;51.110;-4.158;2023-12-20T14:36:11;18.47;;;4.40;;
17648;SDS011;8943;51.110;-4.158;2023-12-20T14:38:39;23.10;;;4.77;;
17648;SDS011;8943;51.110;-4.158;2023-12-20T14:41:07;12.27;;;3.70;;
17648;SDS011;8943;51.110;-4.158;2023-12-20T14:43:36;18.93;;;3.73;;
17648;SDS011;8943;51.110;-4.158;2023-12-20T14:46:04;27.17;;;5.00;;
17648;SDS011;8943;51.110;-4.158;2023-12-20T14:48:34;24.73;;;5.07;;
17648;SDS011;8943;51.110;-4.158;2023-12-20T14:51:02;27.10;;;5.10;;
17648;SDS011;8943;51.110;-4.158;2023-12-20T14:53:30;26.97;;;5.50;;
17648;SDS011;8943;51.110;-4.158;2023-12-20T14:55:58;23.90;;;5.67;;
17648;SDS011;8943;51.110;-4.158;2023-12-20T14:58:29;20.77;;;3.93;;
17648;SDS011;8943;51.110;-4.158;2023-12-20T15:00:58;27.07;;;5.43;;
17648;SDS011;8943;51.110;-4.158;2023-12-20T15:03:26;18.87;;;3.97;;
17648;SDS011;8943;51.110;-4.158;2023-12-20T15:05:57;24.33;;;5.20;;
17648;SDS011;8943;51.110;-4.158;2023-12-20T15:08:25;15.83;;;3.40;;
17648;SDS011;8943;51.110;-4.158;2023-12-20T15:10:54;28.13;;;6.13;;
17648;SDS011;8943;51.110;-4.158;2023-12-20T15:13:22;27.33;;;5.23;;
17648;SDS011;8943;51.110;-4.158;2023-12-20T15:15:50;26.30;;;4.80;;
17648;SDS011;8943;51.110;-4.158;2023-12-20T15:18:18;27.87;;;5.83;;
17648;SDS011;8943;51.110;-4.158;2023-12-20T15:20:46;29.57;;;6.10;;
17648;SDS011;8943;51.110;-4.158;2023-12-20T15:23:16;23.07;;;5.10;;
17648;SDS011;8943;51.110;-4.158;2023-12-20T15:25:45;23.77;;;5.27;;
17648;SDS011;8943;51.110;-4.158;2023-12-20T15:28:15;10.83;;;3.10;;
17648;SDS011;8943;51.110;-4.158;2023-12-20T15:30:47;16.80;;;3.60;;
17648;SDS011;8943;51.110;-4.158;2023-12-20T15:33:16;22.20;;;5.23;;
17648;SDS011;8943;51.110;-4.158;2023-12-20T15:35:44;23.10;;;5.80;;
17648;SDS011;8943;51.110;-4.158;2023-12-20T15:38:22;27.60;;;5.87;;
17648;SDS011;8943;51.110;-4.158;2023-12-20T15:40:50;34.63;;;6.90;;
17648;SDS011;8943;51.110;-4.158;2023-12-20T15:43:18;25.53;;;5.80;;
17648;SDS011;8943;51.110;-4.158;2023-12-20T15:45:47;34.03;;;6.80;;
17648;SDS011;8943;51.110;-4.158;2023-12-20T15:48:15;31.20;;;5.50;;
17648;SDS011;8943;51.110;-4.158;2023-12-20T15:50:46;25.70;;;5.60;;
17648;SDS011;8943;51.110;-4.158;2023-12-20T15:53:15;34.17;;;7.77;;
17648;SDS011;8943;51.110;-4.158;2023-12-20T15:55:44;23.27;;;5.57;;
17648;SDS011;8943;51.110;-4.158;2023-12-20T15:58:12;25.13;;;5.27;;
17648;SDS011;8943;51.110;-4.158;2023-12-20T16:00:40;35.73;;;6.83;;
17648;SDS011;8943;51.110;-4.158;2023-12-20T16:03:09;14.87;;;4.40;;
17648;SDS011;8943;51.110;-4.158;2023-12-20T16:05:50;26.80;;;6.03;;